sensor_id;sensor_type;location;lat;lon;timestamp;pressure;altitude;pressure_sealevel;temperature;humidity
43119;BME280;28729;49.838;8.650;2023-03-03T00:00:13;100095.84;;;2.78;58.29
43119;BME280;28729;49.838;8.650;2023-03-03T00:04:15;100097.16;;;2.67;58.45
43119;BME280;28729;49.838;8.650;2023-03-03T00:08:18;100101.25;;;2.56;59.60
43119;BME280;28729;49.838;8.650;2023-03-03T00:12:23;100096.47;;;2.43;59.89
43119;BME280;28729;49.838;8.650;2023-03-03T00:16:36;100096.31;;;2.30;60.94
43119;BME280;28729;49.838;8.650;2023-03-03T00:20:38;100099.13;;;2.22;60.96
43119;BME280;28729;49.838;8.650;2023-03-03T00:24:40;100105.13;;;2.17;61.35
43119;BME280;28729;49.838;8.650;2023-03-03T00:28:46;100110.97;;;2.14;61.79
43119;BME280;28729;49.838;8.650;2023-03-03T00:32:49;100108.31;;;2.06;61.92
43119;BME280;28729;49.838;8.650;2023-03-03T00:36:53;100110.09;;;1.99;62.44
43119;BME280;28729;49.838;8.650;2023-03-03T00:40:56;100123.03;;;1.97;62.45
43119;BME280;28729;49.838;8.650;2023-03-03T00:44:58;100126.75;;;1.96;62.46
43119;BME280;28729;49.838;8.650;2023-03-03T00:49:01;100132.19;;;1.96;63.36
43119;BME280;28729;49.838;8.650;2023-03-03T00:53:11;100144.09;;;1.95;63.91
43119;BME280;28729;49.838;8.650;2023-03-03T00:57:14;100140.72;;;1.93;63.99
43119;BME280;28729;49.838;8.650;2023-03-03T01:01:17;100146.53;;;1.90;64.82
43119;BME280;28729;49.838;8.650;2023-03-03T01:05:24;100143.34;;;1.86;65.64
43119;BME280;28729;49.838;8.650;2023-03-03T01:09:25;100139.03;;;1.77;65.70
43119;BME280;28729;49.838;8.650;2023-03-03T01:13:30;100133.50;;;1.70;66.18
43119;BME280;28729;49.838;8.650;2023-03-03T01:17:33;100133.19;;;1.65;66.28
43119;BME280;28729;49.838;8.650;2023-03-03T01:21:35;100138.16;;;1.62;67.27
43119;BME280;28729;49.838;8.650;2023-03-03T01:25:37;100131.38;;;1.57;67.19
43119;BME280;28729;49.838;8.650;2023-03-03T01:29:39;100123.97;;;1.51;67.90
43119;BME280;28729;49.838;8.650;2023-03-03T01:33:40;100129.13;;;1.46;68.24
43119;BME280;28729;49.838;8.650;2023-03-03T01:37:42;100130.69;;;1.41;68.55
43119;BME280;28729;49.838;8.650;2023-03-03T01:41:43;100124.97;;;1.35;68.99
43119;BME280;28729;49.838;8.650;2023-03-03T01:49:57;100121.66;;;1.25;70.98
43119;BME280;28729;49.838;8.650;2023-03-03T01:54:03;100128.66;;;1.20;71.71
43119;BME280;28729;49.838;8.650;2023-03-03T01:58:25;100126.94;;;1.19;72.97
43119;BME280;28729;49.838;8.650;2023-03-03T02:02:31;100119.38;;;1.14;72.87
43119;BME280;28729;49.838;8.650;2023-03-03T02:06:36;100118.03;;;1.10;73.38
43119;BME280;28729;49.838;8.650;2023-03-03T02:10:39;100114.00;;;1.06;74.37
43119;BME280;28729;49.838;8.650;2023-03-03T02:14:40;100113.16;;;1.05;74.34
43119;BME280;28729;49.838;8.650;2023-03-03T02:18:42;100114.34;;;1.03;74.64
43119;BME280;28729;49.838;8.650;2023-03-03T02:22:53;100111.16;;;0.99;75.71
43119;BME280;28729;49.838;8.650;2023-03-03T02:26:56;100105.91;;;0.98;76.33
43119;BME280;28729;49.838;8.650;2023-03-03T02:30:59;100105.06;;;0.97;76.00
43119;BME280;28729;49.838;8.650;2023-03-03T02:39:25;100121.53;;;0.96;78.01
43119;BME280;28729;49.838;8.650;2023-03-03T02:43:32;100115.91;;;0.97;77.81
43119;BME280;28729;49.838;8.650;2023-03-03T02:47:37;100109.50;;;0.98;78.54
43119;BME280;28729;49.838;8.650;2023-03-03T02:51:39;100103.13;;;1.06;78.99
43119;BME280;28729;49.838;8.650;2023-03-03T02:55:41;100104.81;;;1.07;79.60
43119;BME280;28729;49.838;8.650;2023-03-03T02:59:43;100101.25;;;1.06;79.20
43119;BME280;28729;49.838;8.650;2023-03-03T03:03:47;100111.66;;;1.03;80.34
43119;BME280;28729;49.838;8.650;2023-03-03T03:07:52;100113.88;;;0.99;82.01
43119;BME280;28729;49.838;8.650;2023-03-03T03:11:54;100112.00;;;1.00;81.21
43119;BME280;28729;49.838;8.650;2023-03-03T03:15:59;100114.25;;;0.96;82.87
43119;BME280;28729;49.838;8.650;2023-03-03T03:20:03;100116.75;;;0.98;83.32
43119;BME280;28729;49.838;8.650;2023-03-03T03:24:06;100112.00;;;1.00;84.07
43119;BME280;28729;49.838;8.650;2023-03-03T03:28:14;100115.03;;;1.05;84.33
43119;BME280;28729;49.838;8.650;2023-03-03T03:32:17;100114.47;;;1.09;85.53
43119;BME280;28729;49.838;8.650;2023-03-03T03:36:19;100113.63;;;1.09;85.51
43119;BME280;28729;49.838;8.650;2023-03-03T03:40:20;100120.75;;;1.10;85.13
43119;BME280;28729;49.838;8.650;2023-03-03T03:44:22;100104.09;;;1.13;85.03
43119;BME280;28729;49.838;8.650;2023-03-03T03:48:25;100109.19;;;1.16;85.35
43119;BME280;28729;49.838;8.650;2023-03-03T03:52:28;100123.59;;;1.17;86.10
43119;BME280;28729;49.838;8.650;2023-03-03T03:56:30;100125.81;;;1.13;86.92
43119;BME280;28729;49.838;8.650;2023-03-03T04:00:34;100118.03;;;1.10;86.77
43119;BME280;28729;49.838;8.650;2023-03-03T04:04:36;100111.66;;;1.03;87.61
43119;BME280;28729;49.838;8.650;2023-03-03T04:08:38;100112.84;;;1.00;88.08
43119;BME280;28729;49.838;8.650;2023-03-03T04:12:42;100124.19;;;1.04;89.88
43119;BME280;28729;49.838;8.650;2023-03-03T04:16:46;100127.75;;;1.04;88.92
43119;BME280;28729;49.838;8.650;2023-03-03T04:20:49;100132.50;;;1.02;90.47
43119;BME280;28729;49.838;8.650;2023-03-03T04:24:51;100126.25;;;1.02;91.91
43119;BME280;28729;49.838;8.650;2023-03-03T04:28:53;100128.28;;;1.00;91.05
43119;BME280;28729;49.838;8.650;2023-03-03T04:32:56;100138.47;;;0.98;91.30
43119;BME280;28729;49.838;8.650;2023-03-03T04:37:00;100143.25;;;0.96;92.09
43119;BME280;28729;49.838;8.650;2023-03-03T04:41:03;100133.75;;;0.91;95.34
43119;BME280;28729;49.838;8.650;2023-03-03T04:45:08;100152.41;;;0.95;94.68
43119;BME280;28729;49.838;8.650;2023-03-03T04:49:11;100147.81;;;0.95;97.32
43119;BME280;28729;49.838;8.650;2023-03-03T04:53:16;100136.13;;;0.95;97.75
43119;BME280;28729;49.838;8.650;2023-03-03T04:57:18;100153.44;;;0.94;98.47
43119;BME280;28729;49.838;8.650;2023-03-03T05:01:20;100158.19;;;0.91;97.83
43119;BME280;28729;49.838;8.650;2023-03-03T05:05:23;100170.78;;;0.84;100.00
43119;BME280;28729;49.838;8.650;2023-03-03T05:09:26;100158.41;;;0.82;100.00
43119;BME280;28729;49.838;8.650;2023-03-03T05:13:28;100157.09;;;0.78;100.00
43119;BME280;28729;49.838;8.650;2023-03-03T05:17:30;100153.03;;;0.74;100.00
43119;BME280;28729;49.838;8.650;2023-03-03T05:21:32;100153.38;;;0.71;100.00
43119;BME280;28729;49.838;8.650;2023-03-03T05:25:33;100153.75;;;0.67;100.00
43119;BME280;28729;49.838;8.650;2023-03-03T05:29:35;100144.09;;;0.65;100.00
43119;BME280;28729;49.838;8.650;2023-03-03T05:33:37;100151.56;;;0.63;100.00
43119;BME280;28729;49.838;8.650;2023-03-03T05:37:38;100141.09;;;0.60;100.00
43119;BME280;28729;49.838;8.650;2023-03-03T05:41:43;100143.13;;;0.58;100.00
43119;BME280;28729;49.838;8.650;2023-03-03T05:45:44;100152.09;;;0.58;100.00
43119;BME280;28729;49.838;8.650;2023-03-03T05:49:46;100143.47;;;0.55;99.99
43119;BME280;28729;49.838;8.650;2023-03-03T05:53:48;100148.41;;;0.51;100.00
43119;BME280;28729;49.838;8.650;2023-03-03T05:57:49;100167.56;;;0.50;100.00
43119;BME280;28729;49.838;8.650;2023-03-03T06:01:51;100168.25;;;0.43;100.00
43119;BME280;28729;49.838;8.650;2023-03-03T06:05:53;100178.41;;;0.41;100.00
43119;BME280;28729;49.838;8.650;2023-03-03T06:09:54;100189.25;;;0.41;100.00
43119;BME280;28729;49.838;8.650;2023-03-03T06:13:58;100175.06;;;0.39;100.00
43119;BME280;28729;49.838;8.650;2023-03-03T06:18:00;100183.53;;;0.36;100.00
43119;BME280;28729;49.838;8.650;2023-03-03T06:22:02;100189.31;;;0.33;100.00
43119;BME280;28729;49.838;8.650;2023-03-03T06:26:04;100193.03;;;0.32;100.00
43119;BME280;28729;49.838;8.650;2023-03-03T06:30:06;100211.66;;;0.35;100.00
43119;BME280;28729;49.838;8.650;2023-03-03T06:34:11;100208.44;;;0.32;100.00
43119;BME280;28729;49.838;8.650;2023-03-03T06:38:15;100218.94;;;0.35;100.00
43119;BME280;28729;49.838;8.650;2023-03-03T06:42:17;100212.34;;;0.37;100.00
43119;BME280;28729;49.838;8.650;2023-03-03T06:46:21;100228.25;;;0.40;100.00
43119;BME280;28729;49.838;8.650;2023-03-03T06:50:24;100228.25;;;0.40;100.00
43119;BME280;28729;49.838;8.650;2023-03-03T06:54:27;100234.50;;;0.41;100.00
43119;BME280;28729;49.838;8.650;2023-03-03T06:58:34;100235.00;;;0.44;100.00
43119;BME280;28729;49.838;8.650;2023-03-03T07:02:37;100240.97;;;0.40;100.00
43119;BME280;28729;49.838;8.650;2023-03-03T07:06:42;100247.56;;;0.45;100.00
43119;BME280;28729;49.838;8.650;2023-03-03T07:10:47;100251.59;;;0.50;100.00
43119;BME280;28729;49.838;8.650;2023-03-03T07:15:20;100266.00;;;0.58;100.00
43119;BME280;28729;49.838;8.650;2023-03-03T07:19:33;100278.16;;;0.62;100.00
43119;BME280;28729;49.838;8.650;2023-03-03T07:23:38;100281.06;;;0.69;100.00
43119;BME280;28729;49.838;8.650;2023-03-03T07:27:43;100287.81;;;0.73;100.00
43119;BME280;28729;49.838;8.650;2023-03-03T07:31:47;100283.53;;;0.87;100.00
43119;BME280;28729;49.838;8.650;2023-03-03T07:35:51;100297.91;;;0.96;100.00
43119;BME280;28729;49.838;8.650;2023-03-03T07:39:54;100304.47;;;1.09;100.00
43119;BME280;28729;49.838;8.650;2023-03-03T07:44:05;100315.25;;;1.26;100.00
43119;BME280;28729;49.838;8.650;2023-03-03T07:48:24;100314.91;;;1.29;100.00
43119;BME280;28729;49.838;8.650;2023-03-03T07:52:41;100327.56;;;1.36;100.00
43119;BME280;28729;49.838;8.650;2023-03-03T07:56:43;100331.25;;;1.52;100.00
43119;BME280;28729;49.838;8.650;2023-03-03T08:05:46;100341.28;;;1.74;100.00
43119;BME280;28729;49.838;8.650;2023-03-03T08:09:51;100338.13;;;1.94;100.00
43119;BME280;28729;49.838;8.650;2023-03-03T08:13:58;100343.72;;;2.15;100.00
43119;BME280;28729;49.838;8.650;2023-03-03T08:18:00;100343.22;;;2.35;100.00
43119;BME280;28729;49.838;8.650;2023-03-03T08:22:15;100356.72;;;2.66;100.00
43119;BME280;28729;49.838;8.650;2023-03-03T08:26:19;100361.50;;;2.93;100.00
43119;BME280;28729;49.838;8.650;2023-03-03T08:30:21;100359.47;;;3.10;99.82
43119;BME280;28729;49.838;8.650;2023-03-03T08:34:24;100363.19;;;3.09;98.76
43119;BME280;28729;49.838;8.650;2023-03-03T08:38:27;100365.38;;;2.99;98.96
43119;BME280;28729;49.838;8.650;2023-03-03T08:42:30;100360.41;;;3.17;99.39
43119;BME280;28729;49.838;8.650;2023-03-03T08:46:33;100363.69;;;3.42;98.31
43119;BME280;28729;49.838;8.650;2023-03-03T08:50:36;100369.16;;;3.79;96.52
43119;BME280;28729;49.838;8.650;2023-03-03T08:54:39;100356.69;;;3.91;94.45
43119;BME280;28729;49.838;8.650;2023-03-03T08:58:41;100354.34;;;3.67;93.17
43119;BME280;28729;49.838;8.650;2023-03-03T09:03:02;100365.97;;;3.75;94.26
43119;BME280;28729;49.838;8.650;2023-03-03T09:07:05;100359.75;;;4.03;93.33
43119;BME280;28729;49.838;8.650;2023-03-03T09:11:14;100363.34;;;4.03;91.06
43119;BME280;28729;49.838;8.650;2023-03-03T09:19:29;100371.66;;;3.80;92.53
43119;BME280;28729;49.838;8.650;2023-03-03T09:23:41;100371.22;;;3.77;92.39
43119;BME280;28729;49.838;8.650;2023-03-03T09:27:43;100379.56;;;4.11;91.87
43119;BME280;28729;49.838;8.650;2023-03-03T09:31:56;100376.38;;;4.51;90.27
43119;BME280;28729;49.838;8.650;2023-03-03T09:58:14;100369.44;;;5.39;84.54
43119;BME280;28729;49.838;8.650;2023-03-03T10:06:59;100378.69;;;5.86;81.14
43119;BME280;28729;49.838;8.650;2023-03-03T10:42:28;100384.75;;;6.70;73.66
43119;BME280;28729;49.838;8.650;2023-03-03T10:55:41;100386.84;;;7.14;71.23
43119;BME280;28729;49.838;8.650;2023-03-03T11:08:43;100398.28;;;7.69;67.52
43119;BME280;28729;49.838;8.650;2023-03-03T11:13:08;100401.00;;;7.76;64.90
43119;BME280;28729;49.838;8.650;2023-03-03T11:17:40;100394.63;;;7.89;62.81
43119;BME280;28729;49.838;8.650;2023-03-03T11:22:12;100396.25;;;7.96;63.90
43119;BME280;28729;49.838;8.650;2023-03-03T11:26:37;100391.31;;;8.12;63.98
43119;BME280;28729;49.838;8.650;2023-03-03T11:35:03;100374.91;;;8.43;59.00
43119;BME280;28729;49.838;8.650;2023-03-03T11:39:17;100367.13;;;8.65;61.33
43119;BME280;28729;49.838;8.650;2023-03-03T11:43:29;100353.50;;;9.02;61.40
43119;BME280;28729;49.838;8.650;2023-03-03T11:47:44;100370.16;;;9.07;57.23
43119;BME280;28729;49.838;8.650;2023-03-03T11:56:16;100351.16;;;9.24;56.47
43119;BME280;28729;49.838;8.650;2023-03-03T12:00:27;100342.03;;;9.61;55.93
43119;BME280;28729;49.838;8.650;2023-03-03T12:04:44;100339.34;;;9.91;56.03
43119;BME280;28729;49.838;8.650;2023-03-03T12:09:00;100329.47;;;10.43;54.08
43119;BME280;28729;49.838;8.650;2023-03-03T12:13:17;100328.34;;;10.86;53.83
43119;BME280;28729;49.838;8.650;2023-03-03T12:22:35;100325.69;;;11.91;51.93
43119;BME280;28729;49.838;8.650;2023-03-03T12:26:53;100315.97;;;12.34;48.41
43119;BME280;28729;49.838;8.650;2023-03-03T12:35:27;100307.44;;;12.52;47.66
43119;BME280;28729;49.838;8.650;2023-03-03T12:44:12;100294.56;;;13.52;43.89
43119;BME280;28729;49.838;8.650;2023-03-03T12:48:37;100289.75;;;14.13;42.24
43119;BME280;28729;49.838;8.650;2023-03-03T12:53:01;100286.34;;;14.39;42.25
43119;BME280;28729;49.838;8.650;2023-03-03T13:02:58;100278.31;;;14.64;41.45
43119;BME280;28729;49.838;8.650;2023-03-03T13:06:30;100277.72;;;15.04;41.21
43119;BME280;28729;49.838;8.650;2023-03-03T13:10:39;100273.28;;;15.56;37.98
43119;BME280;28729;49.838;8.650;2023-03-03T13:14:58;100269.69;;;15.61;37.43
43119;BME280;28729;49.838;8.650;2023-03-03T13:19:08;100275.00;;;15.67;38.61
43119;BME280;28729;49.838;8.650;2023-03-03T13:27:38;100265.53;;;14.36;39.30
43119;BME280;28729;49.838;8.650;2023-03-03T13:31:54;100264.25;;;13.23;41.47
43119;BME280;28729;49.838;8.650;2023-03-03T13:36:01;100265.97;;;12.69;42.11
43119;BME280;28729;49.838;8.650;2023-03-03T13:40:17;100259.06;;;12.49;42.80
43119;BME280;28729;49.838;8.650;2023-03-03T13:44:25;100254.66;;;12.37;42.27
43119;BME280;28729;49.838;8.650;2023-03-03T13:53:11;100245.13;;;12.27;43.20
43119;BME280;28729;49.838;8.650;2023-03-03T13:57:44;100246.94;;;11.76;44.15
43119;BME280;28729;49.838;8.650;2023-03-03T14:01:54;100250.94;;;11.40;44.61
43119;BME280;28729;49.838;8.650;2023-03-03T14:06:07;100239.50;;;11.08;45.44
43119;BME280;28729;49.838;8.650;2023-03-03T14:10:32;100236.28;;;10.76;46.29
43119;BME280;28729;49.838;8.650;2023-03-03T14:14:43;100229.72;;;10.53;47.05
43119;BME280;28729;49.838;8.650;2023-03-03T14:18:54;100236.91;;;10.42;47.46
43119;BME280;28729;49.838;8.650;2023-03-03T14:23:01;100231.25;;;10.37;47.58
43119;BME280;28729;49.838;8.650;2023-03-03T14:27:22;100229.94;;;10.40;47.80
43119;BME280;28729;49.838;8.650;2023-03-03T14:31:30;100235.56;;;10.33;47.54
43119;BME280;28729;49.838;8.650;2023-03-03T14:39:49;100228.31;;;10.09;48.85
43119;BME280;28729;49.838;8.650;2023-03-03T14:43:57;100230.47;;;10.07;49.20
43119;BME280;28729;49.838;8.650;2023-03-03T14:48:09;100231.66;;;10.11;48.74
43119;BME280;28729;49.838;8.650;2023-03-03T15:04:26;100238.94;;;10.05;48.24
43119;BME280;28729;49.838;8.650;2023-03-03T15:08:35;100237.56;;;10.14;47.65
43119;BME280;28729;49.838;8.650;2023-03-03T15:12:41;100232.28;;;10.24;47.80
43119;BME280;28729;49.838;8.650;2023-03-03T15:16:42;100233.88;;;10.56;46.47
43119;BME280;28729;49.838;8.650;2023-03-03T15:20:58;100237.38;;;10.63;45.88
43119;BME280;28729;49.838;8.650;2023-03-03T15:25:10;100232.00;;;10.68;46.08
43119;BME280;28729;49.838;8.650;2023-03-03T15:29:16;100241.69;;;10.47;46.27
43119;BME280;28729;49.838;8.650;2023-03-03T15:33:27;100237.59;;;10.61;46.37
43119;BME280;28729;49.838;8.650;2023-03-03T15:37:51;100243.84;;;10.45;46.00
43119;BME280;28729;49.838;8.650;2023-03-03T15:42:04;100242.34;;;10.19;46.21
43119;BME280;28729;49.838;8.650;2023-03-03T16:00:00;100233.00;;;9.18;46.42
43119;BME280;28729;49.838;8.650;2023-03-03T16:03:45;100238.50;;;8.99;46.76
43119;BME280;28729;49.838;8.650;2023-03-03T16:08:19;100244.28;;;8.91;47.17
43119;BME280;28729;49.838;8.650;2023-03-03T16:12:39;100242.00;;;8.70;47.17
43119;BME280;28729;49.838;8.650;2023-03-03T16:17:13;100243.94;;;8.62;47.63
43119;BME280;28729;49.838;8.650;2023-03-03T16:21:53;100246.84;;;8.49;48.02
43119;BME280;28729;49.838;8.650;2023-03-03T16:30:46;100246.38;;;8.27;49.15
43119;BME280;28729;49.838;8.650;2023-03-03T16:35:04;100250.03;;;8.14;49.46
43119;BME280;28729;49.838;8.650;2023-03-03T16:43:58;100256.41;;;7.83;50.85
43119;BME280;28729;49.838;8.650;2023-03-03T16:48:17;100258.19;;;7.64;51.43
43119;BME280;28729;49.838;8.650;2023-03-03T16:52:30;100259.34;;;7.43;52.16
43119;BME280;28729;49.838;8.650;2023-03-03T16:57:41;100270.44;;;7.23;52.40
43119;BME280;28729;49.838;8.650;2023-03-03T17:05:42;100285.09;;;6.71;54.38
43119;BME280;28729;49.838;8.650;2023-03-03T17:10:14;100282.63;;;6.43;55.51
43119;BME280;28729;49.838;8.650;2023-03-03T17:14:35;100284.94;;;6.19;55.69
43119;BME280;28729;49.838;8.650;2023-03-03T17:18:55;100292.22;;;5.92;56.38
43119;BME280;28729;49.838;8.650;2023-03-03T17:27:19;100299.88;;;5.48;58.18
43119;BME280;28729;49.838;8.650;2023-03-03T17:36:21;100318.84;;;5.09;60.58
43119;BME280;28729;49.838;8.650;2023-03-03T17:40:48;100335.34;;;4.94;61.11
43119;BME280;28729;49.838;8.650;2023-03-03T17:45:06;100332.72;;;4.79;62.30
43119;BME280;28729;49.838;8.650;2023-03-03T18:16:09;100365.59;;;4.00;66.36
43119;BME280;28729;49.838;8.650;2023-03-03T18:20:29;100373.44;;;3.88;67.36
43119;BME280;28729;49.838;8.650;2023-03-03T18:24:59;100381.09;;;3.78;67.72
43119;BME280;28729;49.838;8.650;2023-03-03T18:33:12;100383.53;;;3.73;69.02
43119;BME280;28729;49.838;8.650;2023-03-03T18:41:34;100384.25;;;3.60;70.37
43119;BME280;28729;49.838;8.650;2023-03-03T18:45:54;100388.84;;;3.45;70.30
43119;BME280;28729;49.838;8.650;2023-03-03T18:50:05;100388.66;;;3.31;70.65
43119;BME280;28729;49.838;8.650;2023-03-03T19:02:37;100403.03;;;3.10;72.33
43119;BME280;28729;49.838;8.650;2023-03-03T19:06:55;100411.94;;;3.04;72.19
43119;BME280;28729;49.838;8.650;2023-03-03T19:11:03;100411.13;;;3.04;72.69
43119;BME280;28729;49.838;8.650;2023-03-03T19:15:40;100412.31;;;3.01;73.07
43119;BME280;28729;49.838;8.650;2023-03-03T19:19:30;100416.44;;;2.97;73.97
43119;BME280;28729;49.838;8.650;2023-03-03T19:23:52;100423.28;;;2.93;74.19
43119;BME280;28729;49.838;8.650;2023-03-03T19:36:59;100420.06;;;2.74;76.79
43119;BME280;28729;49.838;8.650;2023-03-03T19:41:19;100421.66;;;2.69;77.59
43119;BME280;28729;49.838;8.650;2023-03-03T19:45:32;100425.78;;;2.65;77.82
43119;BME280;28729;49.838;8.650;2023-03-03T19:50:05;100438.03;;;2.61;77.95
43119;BME280;28729;49.838;8.650;2023-03-03T19:58:33;100428.66;;;2.40;78.54
43119;BME280;28729;49.838;8.650;2023-03-03T20:02:50;100427.88;;;2.32;78.70
43119;BME280;28729;49.838;8.650;2023-03-03T20:12:17;100434.81;;;2.11;80.18
43119;BME280;28729;49.838;8.650;2023-03-03T20:16:25;100436.25;;;1.99;80.14
43119;BME280;28729;49.838;8.650;2023-03-03T20:20:58;100444.63;;;1.89;81.36
43119;BME280;28729;49.838;8.650;2023-03-03T20:25:28;100442.31;;;1.78;81.18
43119;BME280;28729;49.838;8.650;2023-03-03T20:29:53;100443.38;;;1.69;81.75
43119;BME280;28729;49.838;8.650;2023-03-03T20:34:10;100446.28;;;1.67;83.96
43119;BME280;28729;49.838;8.650;2023-03-03T20:38:29;100448.31;;;1.65;83.46
43119;BME280;28729;49.838;8.650;2023-03-03T20:46:54;100462.81;;;1.49;83.89
43119;BME280;28729;49.838;8.650;2023-03-03T20:51:16;100456.72;;;1.47;85.11
43119;BME280;28729;49.838;8.650;2023-03-03T20:59:59;100464.03;;;1.39;85.08
43119;BME280;28729;49.838;8.650;2023-03-03T21:04:39;100469.13;;;1.33;86.87
43119;BME280;28729;49.838;8.650;2023-03-03T21:08:50;100462.00;;;1.32;86.86
43119;BME280;28729;49.838;8.650;2023-03-03T21:12:57;100461.84;;;1.34;86.36
43119;BME280;28729;49.838;8.650;2023-03-03T21:17:28;100460.31;;;1.31;86.66
43119;BME280;28729;49.838;8.650;2023-03-03T21:21:38;100460.50;;;1.30;86.92
43119;BME280;28729;49.838;8.650;2023-03-03T21:29:42;100457.97;;;1.28;86.80
43119;BME280;28729;49.838;8.650;2023-03-03T21:37:55;100473.22;;;1.29;87.76
43119;BME280;28729;49.838;8.650;2023-03-03T21:46:05;100473.56;;;1.26;87.38
43119;BME280;28729;49.838;8.650;2023-03-03T21:50:08;100471.34;;;1.22;88.11
43119;BME280;28729;49.838;8.650;2023-03-03T21:54:09;100474.75;;;1.16;89.16
43119;BME280;28729;49.838;8.650;2023-03-03T21:58:11;100474.28;;;1.12;91.45
43119;BME280;28729;49.838;8.650;2023-03-03T22:02:13;100476.28;;;1.10;90.14
43119;BME280;28729;49.838;8.650;2023-03-03T22:06:14;100480.56;;;1.04;90.48
43119;BME280;28729;49.838;8.650;2023-03-03T22:10:16;100488.38;;;0.99;90.51
43119;BME280;28729;49.838;8.650;2023-03-03T22:14:18;100491.78;;;0.93;90.43
43119;BME280;28729;49.838;8.650;2023-03-03T22:18:20;100488.91;;;0.86;90.27
43119;BME280;28729;49.838;8.650;2023-03-03T22:22:21;100499.22;;;0.83;91.54
43119;BME280;28729;49.838;8.650;2023-03-03T22:26:24;100493.63;;;0.76;91.41
43119;BME280;28729;49.838;8.650;2023-03-03T22:30:26;100496.88;;;0.72;91.92
43119;BME280;28729;49.838;8.650;2023-03-03T22:34:27;100501.94;;;0.66;92.83
43119;BME280;28729;49.838;8.650;2023-03-03T22:38:29;100500.41;;;0.64;93.51
43119;BME280;28729;49.838;8.650;2023-03-03T22:42:31;100497.34;;;0.59;93.68
43119;BME280;28729;49.838;8.650;2023-03-03T22:46:32;100501.75;;;0.52;93.98
43119;BME280;28729;49.838;8.650;2023-03-03T22:50:34;100497.66;;;0.48;93.80
43119;BME280;28729;49.838;8.650;2023-03-03T22:54:39;100494.44;;;0.44;93.85
43119;BME280;28729;49.838;8.650;2023-03-03T22:58:42;100499.56;;;0.39;94.46
43119;BME280;28729;49.838;8.650;2023-03-03T23:02:43;100507.16;;;0.35;94.16
43119;BME280;28729;49.838;8.650;2023-03-03T23:06:45;100506.81;;;0.30;95.31
43119;BME280;28729;49.838;8.650;2023-03-03T23:10:47;100511.03;;;0.25;95.69
43119;BME280;28729;49.838;8.650;2023-03-03T23:14:49;100509.66;;;0.20;95.45
43119;BME280;28729;49.838;8.650;2023-03-03T23:18:50;100503.72;;;0.17;95.92
43119;BME280;28729;49.838;8.650;2023-03-03T23:22:52;100514.06;;;0.13;96.31
43119;BME280;28729;49.838;8.650;2023-03-03T23:26:54;100507.09;;;0.11;97.05
43119;BME280;28729;49.838;8.650;2023-03-03T23:30:58;100512.69;;;0.09;97.23
43119;BME280;28729;49.838;8.650;2023-03-03T23:35:00;100506.41;;;0.09;97.40
43119;BME280;28729;49.838;8.650;2023-03-03T23:39:01;100508.78;;;0.04;98.03
43119;BME280;28729;49.838;8.650;2023-03-03T23:43:03;100510.78;;;0.02;98.31
43119;BME280;28729;49.838;8.650;2023-03-03T23:47:06;100512.16;;;-0.03;98.57
43119;BME280;28729;49.838;8.650;2023-03-03T23:51:08;100508.91;;;-0.06;98.87
43119;BME280;28729;49.838;8.650;2023-03-03T23:55:09;100518.88;;;-0.07;99.37
43119;BME280;28729;49.838;8.650;2023-03-03T23:59:11;100520.94;;;-0.09;99.41
